Ellsworth, KS (67439)

3:49 AM CDT on May 26, 2015 (GMT -0500)
Wilson | | Change Station
CLOSE
Current Station
Personal Weather Station
Location: Wilson, KS
Elevation: 1689 ft
Nearby Weather Stations

Elev 1689 ft 38.82 °N, 98.47 °W | Updated 15 seconds ago

Partly Cloudy
Partly Cloudy
59.1 °F
Feels Like 59.1 °F
N
3.7
Wind Variable Wind from West
Gusts 6.8 mph

Today
High -- | Low -- °F
--% Chance of Precip.
Yesterday
High -- | Low -- °F
Precip. -- in
6:12 AM 8:47 PM
First Quarter, 56% visible
Pressure 29.78 in
Visibility 10.0 miles
Clouds Scattered Clouds 7500 ft
Mostly Cloudy 9500 ft
Dew Point 46 °F
Humidity 62%
Rainfall in
Snow Depth Not available.
UV 0 out of 12
Pollen 7.60 out of 12
Air Quality Not available.
Flu Activity No Activity
METAR KSLN 260753Z AUTO 18008KT 10SM SCT075 BKN095 16/13 A2981 RMK AO2 SLP084 T01610133

More Conditions Fewer Conditions

Pressure 29.78 in
Visibility 10.0 miles
Clouds Scattered Clouds 7500 ft
Mostly Cloudy 9500 ft
Dew Point 46 °F
Humidity 62%
Rainfall in
Snow Depth Not available.
UV 0 out of 12
Pollen 7.60 out of 12
Air Quality Not available.
Flu Activity No Activity
METAR KSLN 260753Z AUTO 18008KT 10SM SCT075 BKN095 16/13 A2981 RMK AO2 SLP084 T01610133

More Conditions Fewer Conditions

10-Day Weather Forecast

Almanac

Astronomy

May. 26, 2015 Rise Set
Actual Time
Civil Twilight
Nautical Twilight
Astronomical Twilight
Moon
Length of Visible Light
Length of Day
Tomorrow will be .
, % of the Moon is Illuminated

Today's Extremes

State Highs State Lows

Community

WunderPhotos

Upload Photos

1,824,302 photos uploaded!

WunderBlogs® & News

Nearby

Air Quality

  Air Quality AQ Index Pollutant
Not available.

Snow Depth

Station Depth Elevation

Earthquake Activity

City Distance Mag. Time & Date
Minimum magnitude displayed is 2.5.

Coastal Water Temperatures

Place Temperature

Stations

Nearby Weather Stations

Station Location Temp. Windchill Dew Point Humidity Wind Precip. Elev Updated Type